sensor_id;sensor_type;location;lat;lon;timestamp;pressure;altitude;pressure_sealevel;temperature;humidity
32330;BME280;18807;52.434;13.238;2022-12-29T00:02:44;100263.56;;;7.82;100.00
32330;BME280;18807;52.434;13.238;2022-12-29T00:10:20;100254.63;;;7.77;100.00
32330;BME280;18807;52.434;13.238;2022-12-29T00:17:54;100248.50;;;7.82;100.00
32330;BME280;18807;52.434;13.238;2022-12-29T00:25:29;100238.78;;;7.83;100.00
32330;BME280;18807;52.434;13.238;2022-12-29T00:33:22;100224.63;;;7.85;100.00
32330;BME280;18807;52.434;13.238;2022-12-29T00:41:19;100224.66;;;7.87;100.00
32330;BME280;18807;52.434;13.238;2022-12-29T00:49:12;100219.31;;;7.85;100.00
32330;BME280;18807;52.434;13.238;2022-12-29T00:57:08;100215.81;;;7.88;100.00
32330;BME280;18807;52.434;13.238;2022-12-29T01:04:42;100218.34;;;7.82;100.00
32330;BME280;18807;52.434;13.238;2022-12-29T01:12:18;100201.50;;;7.80;100.00
32330;BME280;18807;52.434;13.238;2022-12-29T01:20:12;100209.59;;;7.86;100.00
32330;BME280;18807;52.434;13.238;2022-12-29T01:27:48;100208.72;;;7.87;100.00
32330;BME280;18807;52.434;13.238;2022-12-29T01:35:21;100196.38;;;7.90;100.00
32330;BME280;18807;52.434;13.238;2022-12-29T01:42:57;100207.88;;;7.91;100.00
32330;BME280;18807;52.434;13.238;2022-12-29T01:50:32;100206.94;;;7.86;100.00
32330;BME280;18807;52.434;13.238;2022-12-29T01:58:09;100175.84;;;7.83;100.00
32330;BME280;18807;52.434;13.238;2022-12-29T02:05:49;100172.34;;;7.84;100.00
32330;BME280;18807;52.434;13.238;2022-12-29T02:13:27;100178.53;;;7.85;100.00
32330;BME280;18807;52.434;13.238;2022-12-29T02:21:39;100163.63;;;7.93;100.00
32330;BME280;18807;52.434;13.238;2022-12-29T02:29:42;100160.22;;;8.03;100.00
32330;BME280;18807;52.434;13.238;2022-12-29T02:37:30;100153.19;;;8.06;100.00
32330;BME280;18807;52.434;13.238;2022-12-29T02:45:10;100160.56;;;8.24;100.00
32330;BME280;18807;52.434;13.238;2022-12-29T02:52:51;100148.28;;;8.32;100.00
32330;BME280;18807;52.434;13.238;2022-12-29T03:00:26;100131.66;;;8.50;100.00
32330;BME280;18807;52.434;13.238;2022-12-29T03:08:06;100126.47;;;8.60;100.00
32330;BME280;18807;52.434;13.238;2022-12-29T03:15:46;100105.31;;;8.69;100.00
32330;BME280;18807;52.434;13.238;2022-12-29T03:23:39;100108.06;;;8.78;100.00
32330;BME280;18807;52.434;13.238;2022-12-29T03:31:15;100110.75;;;8.83;100.00
32330;BME280;18807;52.434;13.238;2022-12-29T03:38:57;100101.19;;;8.98;100.00
32330;BME280;18807;52.434;13.238;2022-12-29T03:46:33;100110.16;;;9.06;100.00
32330;BME280;18807;52.434;13.238;2022-12-29T03:54:09;100112.00;;;9.15;100.00
32330;BME280;18807;52.434;13.238;2022-12-29T04:01:43;100100.47;;;9.16;100.00
32330;BME280;18807;52.434;13.238;2022-12-29T04:09:19;100103.13;;;9.17;100.00
32330;BME280;18807;52.434;13.238;2022-12-29T04:16:52;100103.25;;;9.28;100.00
32330;BME280;18807;52.434;13.238;2022-12-29T04:24:28;100115.59;;;9.21;100.00
32330;BME280;18807;52.434;13.238;2022-12-29T04:32:02;100089.91;;;9.25;100.00
32330;BME280;18807;52.434;13.238;2022-12-29T04:39:37;100107.63;;;9.23;100.00
32330;BME280;18807;52.434;13.238;2022-12-29T04:47:11;100094.31;;;9.24;100.00
32330;BME280;18807;52.434;13.238;2022-12-29T04:54:46;100075.75;;;9.33;100.00
32330;BME280;18807;52.434;13.238;2022-12-29T05:02:20;100082.00;;;9.37;100.00
32330;BME280;18807;52.434;13.238;2022-12-29T05:09:56;100076.72;;;9.40;100.00
32330;BME280;18807;52.434;13.238;2022-12-29T05:17:30;100063.50;;;9.52;100.00
32330;BME280;18807;52.434;13.238;2022-12-29T05:25:06;100051.00;;;9.46;100.00
32330;BME280;18807;52.434;13.238;2022-12-29T05:32:40;100048.41;;;9.57;100.00
32330;BME280;18807;52.434;13.238;2022-12-29T05:40:15;100029.81;;;9.67;100.00
32330;BME280;18807;52.434;13.238;2022-12-29T05:47:50;100033.44;;;9.75;100.00
32330;BME280;18807;52.434;13.238;2022-12-29T05:55:25;100028.16;;;9.84;100.00
32330;BME280;18807;52.434;13.238;2022-12-29T06:02:58;100016.63;;;9.91;100.00
32330;BME280;18807;52.434;13.238;2022-12-29T06:10:34;100022.94;;;10.01;100.00
32330;BME280;18807;52.434;13.238;2022-12-29T06:18:08;100021.19;;;10.09;100.00
32330;BME280;18807;52.434;13.238;2022-12-29T06:25:52;100023.88;;;10.13;100.00
32330;BME280;18807;52.434;13.238;2022-12-29T06:33:26;100025.69;;;10.15;100.00
32330;BME280;18807;52.434;13.238;2022-12-29T06:41:02;100024.81;;;10.19;100.00
32330;BME280;18807;52.434;13.238;2022-12-29T06:48:37;100035.50;;;10.19;100.00
32330;BME280;18807;52.434;13.238;2022-12-29T06:56:12;100045.22;;;10.10;100.00
32330;BME280;18807;52.434;13.238;2022-12-29T07:03:46;100048.81;;;10.13;100.00
32330;BME280;18807;52.434;13.238;2022-12-29T07:11:22;100051.47;;;10.09;100.00
32330;BME280;18807;52.434;13.238;2022-12-29T07:18:56;100055.78;;;9.95;100.00
32330;BME280;18807;52.434;13.238;2022-12-29T07:26:32;100068.22;;;9.90;100.00
32330;BME280;18807;52.434;13.238;2022-12-29T07:34:08;100049.50;;;9.84;100.00
32330;BME280;18807;52.434;13.238;2022-12-29T07:41:43;100051.25;;;9.82;100.00
32330;BME280;18807;52.434;13.238;2022-12-29T07:49:18;100057.50;;;9.84;100.00
32330;BME280;18807;52.434;13.238;2022-12-29T07:56:53;100054.00;;;9.97;100.00
32330;BME280;18807;52.434;13.238;2022-12-29T08:04:27;100054.88;;;9.92;100.00
32330;BME280;18807;52.434;13.238;2022-12-29T08:12:03;100040.66;;;9.93;100.00
32330;BME280;18807;52.434;13.238;2022-12-29T08:19:37;100047.81;;;10.04;100.00
32330;BME280;18807;52.434;13.238;2022-12-29T08:27:13;100044.28;;;10.05;100.00
32330;BME280;18807;52.434;13.238;2022-12-29T08:34:52;100044.25;;;10.01;100.00
32330;BME280;18807;52.434;13.238;2022-12-29T08:42:27;100047.81;;;10.01;100.00
32330;BME280;18807;52.434;13.238;2022-12-29T08:50:04;100048.91;;;10.35;100.00
32330;BME280;18807;52.434;13.238;2022-12-29T08:57:42;100040.06;;;10.48;100.00
32330;BME280;18807;52.434;13.238;2022-12-29T09:05:16;100036.59;;;10.76;100.00
32330;BME280;18807;52.434;13.238;2022-12-29T09:12:54;100032.16;;;10.84;100.00
32330;BME280;18807;52.434;13.238;2022-12-29T09:20:28;100027.72;;;11.03;100.00
32330;BME280;18807;52.434;13.238;2022-12-29T09:28:04;100030.41;;;11.09;100.00
32330;BME280;18807;52.434;13.238;2022-12-29T09:35:41;100006.38;;;11.40;98.74
32330;BME280;18807;52.434;13.238;2022-12-29T09:43:37;100001.91;;;11.27;100.00
32330;BME280;18807;52.434;13.238;2022-12-29T09:51:22;99994.75;;;11.23;100.00
32330;BME280;18807;52.434;13.238;2022-12-29T09:59:02;99998.34;;;11.37;100.00
32330;BME280;18807;52.434;13.238;2022-12-29T10:06:43;100010.81;;;11.37;100.00
32330;BME280;18807;52.434;13.238;2022-12-29T10:14:52;100001.88;;;11.53;100.00
32330;BME280;18807;52.434;13.238;2022-12-29T10:22:36;100009.00;;;11.75;100.00
32330;BME280;18807;52.434;13.238;2022-12-29T10:30:14;100001.81;;;11.99;97.78
32330;BME280;18807;52.434;13.238;2022-12-29T10:37:53;100002.72;;;12.03;97.93
32330;BME280;18807;52.434;13.238;2022-12-29T10:45:32;100001.81;;;11.96;98.01
32330;BME280;18807;52.434;13.238;2022-12-29T10:53:15;99993.81;;;11.92;98.90
32330;BME280;18807;52.434;13.238;2022-12-29T11:00:54;99997.38;;;11.98;98.38
32330;BME280;18807;52.434;13.238;2022-12-29T11:08:38;100010.75;;;11.97;98.19
32330;BME280;18807;52.434;13.238;2022-12-29T11:16:27;100014.31;;;11.97;100.00
32330;BME280;18807;52.434;13.238;2022-12-29T11:24:23;100008.09;;;11.89;100.00
32330;BME280;18807;52.434;13.238;2022-12-29T11:31:58;100025.06;;;11.78;100.00
32330;BME280;18807;52.434;13.238;2022-12-29T11:39:36;100017.06;;;11.66;100.00
32330;BME280;18807;52.434;13.238;2022-12-29T11:47:25;100023.28;;;11.50;100.00
32330;BME280;18807;52.434;13.238;2022-12-29T11:55:02;100037.53;;;11.23;100.00
32330;BME280;18807;52.434;13.238;2022-12-29T12:02:41;100042.84;;;11.01;100.00
32330;BME280;18807;52.434;13.238;2022-12-29T12:10:28;100031.25;;;10.81;100.00
32330;BME280;18807;52.434;13.238;2022-12-29T12:18:10;100041.00;;;10.62;100.00
32330;BME280;18807;52.434;13.238;2022-12-29T12:25:54;100033.81;;;10.51;100.00
32330;BME280;18807;52.434;13.238;2022-12-29T12:33:35;100029.34;;;10.39;100.00
32330;BME280;18807;52.434;13.238;2022-12-29T12:41:11;100027.53;;;10.32;100.00
32330;BME280;18807;52.434;13.238;2022-12-29T12:49:15;100013.25;;;10.18;100.00
32330;BME280;18807;52.434;13.238;2022-12-29T12:57:09;100021.22;;;10.12;100.00
32330;BME280;18807;52.434;13.238;2022-12-29T13:05:02;100032.78;;;10.08;100.00
32330;BME280;18807;52.434;13.238;2022-12-29T13:12:47;100035.44;;;10.06;100.00
32330;BME280;18807;52.434;13.238;2022-12-29T13:20:30;100041.69;;;10.12;100.00
32330;BME280;18807;52.434;13.238;2022-12-29T13:28:12;100030.13;;;10.11;100.00
32330;BME280;18807;52.434;13.238;2022-12-29T13:35:57;100035.44;;;10.09;100.00
32330;BME280;18807;52.434;13.238;2022-12-29T13:43:36;100034.53;;;10.07;100.00
32330;BME280;18807;52.434;13.238;2022-12-29T13:51:15;100036.34;;;10.07;100.00
32330;BME280;18807;52.434;13.238;2022-12-29T13:59:05;100040.75;;;10.06;100.00
32330;BME280;18807;52.434;13.238;2022-12-29T14:06:44;100044.28;;;10.02;100.00
32330;BME280;18807;52.434;13.238;2022-12-29T14:14:21;100041.56;;;9.96;100.00
32330;BME280;18807;52.434;13.238;2022-12-29T14:22:00;100054.91;;;9.95;100.00
32330;BME280;18807;52.434;13.238;2022-12-29T14:29:45;100058.44;;;9.88;100.00
32330;BME280;18807;52.434;13.238;2022-12-29T14:37:27;100069.91;;;9.82;100.00
32330;BME280;18807;52.434;13.238;2022-12-29T14:45:05;100076.16;;;9.81;100.00
32330;BME280;18807;52.434;13.238;2022-12-29T14:52:46;100089.47;;;9.80;100.00
32330;BME280;18807;52.434;13.238;2022-12-29T15:00:29;100097.44;;;9.74;100.00
32330;BME280;18807;52.434;13.238;2022-12-29T15:08:06;100119.66;;;9.73;100.00
32330;BME280;18807;52.434;13.238;2022-12-29T15:15:42;100142.84;;;9.84;100.00
32330;BME280;18807;52.434;13.238;2022-12-29T15:23:17;100134.88;;;9.87;100.00
32330;BME280;18807;52.434;13.238;2022-12-29T15:30:53;100141.94;;;9.82;100.00
32330;BME280;18807;52.434;13.238;2022-12-29T15:38:30;100145.41;;;9.72;100.00
32330;BME280;18807;52.434;13.238;2022-12-29T15:46:12;100156.00;;;9.65;100.00
32330;BME280;18807;52.434;13.238;2022-12-29T15:53:50;100172.78;;;9.53;100.00
32330;BME280;18807;52.434;13.238;2022-12-29T16:01:28;100176.25;;;9.43;100.00
32330;BME280;18807;52.434;13.238;2022-12-29T16:09:07;100189.50;;;9.36;100.00
32330;BME280;18807;52.434;13.238;2022-12-29T16:16:43;100200.97;;;9.30;100.00
32330;BME280;18807;52.434;13.238;2022-12-29T16:24:21;100195.59;;;9.27;100.00
32330;BME280;18807;52.434;13.238;2022-12-29T16:31:58;100206.31;;;9.30;100.00
32330;BME280;18807;52.434;13.238;2022-12-29T16:39:37;100216.25;;;9.43;100.00
32330;BME280;18807;52.434;13.238;2022-12-29T16:47:18;100212.69;;;9.44;100.00
32330;BME280;18807;52.434;13.238;2022-12-29T16:54:56;100229.69;;;9.58;100.00
32330;BME280;18807;52.434;13.238;2022-12-29T17:02:35;100223.47;;;9.56;100.00
32330;BME280;18807;52.434;13.238;2022-12-29T17:10:18;100239.53;;;9.61;100.00
32330;BME280;18807;52.434;13.238;2022-12-29T17:17:56;100244.94;;;9.67;100.00
32330;BME280;18807;52.434;13.238;2022-12-29T17:25:34;100241.53;;;9.83;100.00
32330;BME280;18807;52.434;13.238;2022-12-29T17:33:15;100259.31;;;9.84;100.00
32330;BME280;18807;52.434;13.238;2022-12-29T17:41:45;100253.94;;;9.81;100.00
32330;BME280;18807;52.434;13.238;2022-12-29T17:48:53;100239.72;;;9.80;100.00
32330;BME280;18807;52.434;13.238;2022-12-29T17:56:30;100256.56;;;9.76;100.00
32330;BME280;18807;52.434;13.238;2022-12-29T18:04:04;100256.44;;;9.64;100.00
32330;BME280;18807;52.434;13.238;2022-12-29T18:11:41;100252.81;;;9.56;100.00
32330;BME280;18807;52.434;13.238;2022-12-29T18:19:15;100268.66;;;9.44;100.00
32330;BME280;18807;52.434;13.238;2022-12-29T18:26:51;100279.16;;;9.31;100.00
32330;BME280;18807;52.434;13.238;2022-12-29T18:34:24;100279.91;;;9.18;100.00
32330;BME280;18807;52.434;13.238;2022-12-29T18:42:00;100272.72;;;9.11;100.00
32330;BME280;18807;52.434;13.238;2022-12-29T18:49:34;100278.75;;;9.01;100.00
32330;BME280;18807;52.434;13.238;2022-12-29T18:57:09;100279.59;;;8.95;100.00
32330;BME280;18807;52.434;13.238;2022-12-29T19:04:43;100293.66;;;8.85;100.00
32330;BME280;18807;52.434;13.238;2022-12-29T19:12:25;100293.56;;;8.79;100.00
32330;BME280;18807;52.434;13.238;2022-12-29T19:20:00;100304.13;;;8.73;100.00
32330;BME280;18807;52.434;13.238;2022-12-29T19:27:36;100313.81;;;8.68;100.00
32330;BME280;18807;52.434;13.238;2022-12-29T19:35:10;100317.25;;;8.61;100.00
32330;BME280;18807;52.434;13.238;2022-12-29T19:42:45;100334.03;;;8.56;100.00
32330;BME280;18807;52.434;13.238;2022-12-29T19:50:20;100328.72;;;8.57;100.00
32330;BME280;18807;52.434;13.238;2022-12-29T19:57:55;100325.22;;;8.60;100.00
32330;BME280;18807;52.434;13.238;2022-12-29T20:05:29;100320.88;;;8.65;100.00
32330;BME280;18807;52.434;13.238;2022-12-29T20:13:05;100326.28;;;8.71;100.00
32330;BME280;18807;52.434;13.238;2022-12-29T20:20:39;100319.22;;;8.74;100.00
32330;BME280;18807;52.434;13.238;2022-12-29T20:28:14;100325.56;;;8.82;100.00
32330;BME280;18807;52.434;13.238;2022-12-29T20:35:49;100325.75;;;8.94;100.00
32330;BME280;18807;52.434;13.238;2022-12-29T20:43:24;100329.34;;;8.99;100.00
32330;BME280;18807;52.434;13.238;2022-12-29T20:50:58;100319.66;;;9.03;100.00
32330;BME280;18807;52.434;13.238;2022-12-29T20:58:34;100326.81;;;9.08;100.00
32330;BME280;18807;52.434;13.238;2022-12-29T21:06:28;100325.09;;;9.10;100.00
32330;BME280;18807;52.434;13.238;2022-12-29T21:14:03;100329.47;;;9.07;100.00
32330;BME280;18807;52.434;13.238;2022-12-29T21:21:37;100321.44;;;9.05;100.00
32330;BME280;18807;52.434;13.238;2022-12-29T21:29:14;100326.78;;;9.05;100.00
32330;BME280;18807;52.434;13.238;2022-12-29T21:36:48;100345.47;;;9.08;100.00
32330;BME280;18807;52.434;13.238;2022-12-29T21:44:23;100352.53;;;9.03;100.00
32330;BME280;18807;52.434;13.238;2022-12-29T21:52:15;100356.81;;;8.95;100.00
32330;BME280;18807;52.434;13.238;2022-12-29T21:59:50;100370.03;;;8.88;100.00
32330;BME280;18807;52.434;13.238;2022-12-29T22:07:42;100375.22;;;8.79;100.00
32330;BME280;18807;52.434;13.238;2022-12-29T22:15:35;100369.75;;;8.70;100.00
32330;BME280;18807;52.434;13.238;2022-12-29T22:23:11;100369.63;;;8.62;100.00
32330;BME280;18807;52.434;13.238;2022-12-29T22:30:48;100373.06;;;8.55;100.00
32330;BME280;18807;52.434;13.238;2022-12-29T22:38:22;100375.63;;;8.51;100.00
32330;BME280;18807;52.434;13.238;2022-12-29T22:46:02;100384.41;;;8.44;100.00
32330;BME280;18807;52.434;13.238;2022-12-29T22:53:36;100397.63;;;8.39;100.00
32330;BME280;18807;52.434;13.238;2022-12-29T23:01:14;100407.38;;;8.40;100.00
32330;BME280;18807;52.434;13.238;2022-12-29T23:08:49;100411.81;;;8.38;100.00
32330;BME280;18807;52.434;13.238;2022-12-29T23:16:27;100425.94;;;8.36;100.00
32330;BME280;18807;52.434;13.238;2022-12-29T23:24:01;100423.31;;;8.39;100.00
32330;BME280;18807;52.434;13.238;2022-12-29T23:31:39;100429.59;;;8.41;100.00
32330;BME280;18807;52.434;13.238;2022-12-29T23:39:17;100440.16;;;8.38;100.00
32330;BME280;18807;52.434;13.238;2022-12-29T23:46:53;100440.09;;;8.33;100.00
32330;BME280;18807;52.434;13.238;2022-12-29T23:54:27;100457.69;;;8.27;100.00
